Airfield :
LOGIN :

Register | Disclaimer

   EN    FR    IT 

 










Legend :    VFR   Marginal VFR   IFR   Intensive IFR   Very Intensive IFR
Visi :
Ceiling :
>= 8 km
>= 3000ft
5 to 8 km
1000 to 3000 ft
1500m to 5 km
500 to 1000 ft
800 to 1500m
200 to 500 ft
< 800m
< 200 ft
Symbols :   Thunderstorms  Fog  Heavy snow  Heavy precipitations  Wind > 20 kt
SIGMETs :     Misc.  Thunderstorms  Icing  Turbulence  Mountain Waves  Volcanic Ashes






- Airport Elevation : 23 ft
- IATA code : XFW


EDHI - Hamburg Finkenwerder

CURRENT METAR :
  • 231420Z 24010KT CAVOK 09/M02 Q1015

EXPIRED METARs :
  • 231350Z 27011KT CAVOK 09/M01 Q1016
  • 231320Z 27011KT 240V300 CAVOK 10/M02 Q1016
  • 231250Z 25012KT CAVOK 08/M03 Q1017
  • 231220Z 24011KT 190V260 9999 BKN049 08/M02 Q1017
  • 231150Z 23009KT 180V240 9999 BKN049 08/M02 Q1018
  • 231120Z 23009KT 200V260 9999 SCT046 08/M01 Q1018
  • 231050Z 22007KT 190V260 CAVOK 08/M01 Q1019
  • 231020Z 22009KT 170V250 CAVOK 07/M01 Q1019

TAF TAF EDHI
Valid from the 23 at 15:00 until the 23 at 21:00 UTC


231400Z 2315/2321 26010KT 9999 FEW040
BECMG 2317/2319 20005KT



MET'MAP, your aeronautical weather chart ! - Copyright ORBIFLY December 2007 - Disclaimer

ORBIFLY MET'MAP TEAM :

Programming & Development : Alexandra Zaïnal
Original concept : Baudouin d'Aumeries
Technical & hardware support : Manuel Goepfert
Assistance : Marc-Olivier Méhu




SOURCES & CREDITS :

   NOAA